Pagrindinis puslapis
METAR-TAF:

METAR-TAF

Oro uostai :

Vadsė, Norvegija

platuma: 70-04N, ilguma: 029-51E, Aukštis: 3 m

Dabartinis oras

Ataskaita buvo paskelbta 38 minutes, ne 23:50 UTC
Vėjas 4 kt iš Šiaurės/Šiaurės Rytų
Temperatūra 16°C
Drėgmė 82%
Slėgis 1011 hPa
Matomumas 10 km arba daugiau

METAR: ENVD 022350Z AUTO 03004KT 9999 NCD 16/13 Q1011

Laikas: 02:28 (00:28 UTC)

Prognozė

Ataskaita buvo paskelbta 16 valandos ir 28 minutes, ne 08:00 UTC
Prognozė galioja nuo 02 metu 10 UTC su 02 metu 14 UTC
Vėjas 12 kt iš Rytų/Šiaurės Rytų
Matomumas 10 km arba daugiau
nėra debesų žemiau 1500 m ir nėra kamuolinių lietaus debesų

TAF: ENVD 020800Z 0210/0214 07012KT CAVOK

Orai ataskaitas ir orų prognozės (METAR, TAF).

turimą stotys yra geltonos ir raudonos taškus žemėlapyje.

Perkelti pele per norėdami pamatyti stoties vardą.

Tada spustelėkite, norėdami matyti oro stebėjimo ir prognozės.

Norėdami pakeisti žemėlapį: spustelėkite ant žalios mygtukų su juodo kryžiaus žemyn,; žalią mygtuką su brūkšneliu, jei norite nutolinti; arba žalių rodyklių gretimoms žemėlapius.


METAR-TAF: